createdAt,value
2022-09-19T00:04:53.915Z,17.69
2022-09-19T00:09:57.527Z,17.63
2022-09-19T00:15:01.940Z,17.60
2022-09-19T00:20:06.127Z,17.74
2022-09-19T00:25:10.424Z,18.16
2022-09-19T00:30:13.848Z,18.09
2022-09-19T00:35:17.044Z,18.00
2022-09-19T00:40:20.636Z,18.10
2022-09-19T00:45:24.421Z,17.85
2022-09-19T00:50:32.082Z,17.84
2022-09-19T00:55:35.368Z,17.71
2022-09-19T01:00:39.237Z,17.46
2022-09-19T01:06:17.370Z,17.45
2022-09-19T01:11:32.664Z,17.35
2022-09-19T01:16:44.316Z,17.13
2022-09-19T01:21:53.209Z,17.10
2022-09-19T01:27:35.116Z,17.07
2022-09-19T01:33:06.987Z,17.11
2022-09-19T01:38:15.642Z,17.31
2022-09-19T01:43:21.342Z,17.50
2022-09-19T01:48:52.052Z,17.44
2022-09-19T01:54:40.314Z,17.58
2022-09-19T01:59:56.469Z,17.43
2022-09-19T02:05:18.335Z,17.26
2022-09-19T02:10:33.878Z,17.29
2022-09-19T02:15:38.490Z,17.35
2022-09-19T02:20:46.416Z,17.26
2022-09-19T02:25:53.192Z,17.14
2022-09-19T02:30:58.087Z,17.21
2022-09-19T02:36:23.422Z,17.02
2022-09-19T02:41:37.512Z,16.97
2022-09-19T02:46:48.650Z,16.87
2022-09-19T02:52:00.302Z,17.00
2022-09-19T02:57:11.303Z,17.05
2022-09-19T03:02:24.710Z,16.98
2022-09-19T03:07:34.952Z,17.02
2022-09-19T03:12:59.364Z,17.04
2022-09-19T03:18:11.785Z,16.89
2022-09-19T03:23:21.013Z,16.74
2022-09-19T03:28:24.537Z,16.46
2022-09-19T03:33:33.391Z,16.43
2022-09-19T03:38:45.865Z,16.10
2022-09-19T03:43:55.845Z,16.09
2022-09-19T03:49:03.899Z,16.14
2022-09-19T03:54:09.133Z,16.11
2022-09-19T03:59:17.656Z,15.89
2022-09-19T04:04:22.650Z,15.84
2022-09-19T04:09:30.934Z,16.02
2022-09-19T04:14:37.112Z,16.12
2022-09-19T04:19:41.673Z,16.10
2022-09-19T04:25:17.349Z,15.95
2022-09-19T04:30:36.615Z,16.15
2022-09-19T04:35:41.717Z,16.00
2022-09-19T04:40:49.401Z,15.91
2022-09-19T04:45:53.661Z,15.74
2022-09-19T04:51:08.601Z,15.65
2022-09-19T04:56:13.371Z,16.05
2022-09-19T05:01:19.545Z,16.31
2022-09-19T05:06:24.666Z,16.26
2022-09-19T05:11:28.481Z,16.29
2022-09-19T05:16:32.280Z,16.25
2022-09-19T05:21:44.844Z,16.04
2022-09-19T05:26:48.392Z,15.95
2022-09-19T05:31:56.203Z,15.96
2022-09-19T05:37:10.514Z,15.93
2022-09-19T05:42:27.216Z,16.25
2022-09-19T05:47:30.549Z,16.57
2022-09-19T05:52:52.870Z,17.00
2022-09-19T05:57:59.671Z,17.47
2022-09-19T06:03:04.939Z,18.03
2022-09-19T06:08:09.121Z,19.31
2022-09-19T06:13:14.554Z,22.90
2022-09-19T06:18:18.099Z,23.74
2022-09-19T06:23:29.206Z,24.31
2022-09-19T06:28:32.260Z,25.17
2022-09-19T06:33:43.886Z,26.11
2022-09-19T06:38:52.910Z,26.07
2022-09-19T06:44:31.644Z,26.71
2022-09-19T06:49:37.369Z,27.61
2022-09-19T06:55:00.895Z,27.15
2022-09-19T07:00:06.051Z,23.76
2022-09-19T07:05:12.115Z,22.80
2022-09-19T07:10:22.305Z,24.02
2022-09-19T07:15:25.610Z,23.21
2022-09-19T07:20:30.530Z,22.33
2022-09-19T07:25:58.571Z,22.25
2022-09-19T07:31:03.429Z,22.69
2022-09-19T07:36:10.458Z,25.09
2022-09-19T07:41:15.290Z,26.17
2022-09-19T07:46:34.555Z,25.95
2022-09-19T07:51:56.411Z,26.58
2022-09-19T07:57:00.449Z,26.02
2022-09-19T08:02:05.249Z,25.23
2022-09-19T08:07:12.941Z,26.39
2022-09-19T08:12:17.362Z,26.63
2022-09-19T08:17:25.742Z,27.51
2022-09-19T08:22:28.803Z,28.16
2022-09-19T08:27:39.380Z,27.54
2022-09-19T08:32:46.704Z,27.52
2022-09-19T08:37:55.670Z,27.79
2022-09-19T08:43:12.233Z,27.57
2022-09-19T08:48:39.534Z,27.58
2022-09-19T08:53:47.670Z,28.08
2022-09-19T08:59:03.302Z,28.18
2022-09-19T09:04:37.514Z,28.37
2022-09-19T09:10:14.630Z,28.02
2022-09-19T09:15:50.611Z,28.29
2022-09-19T09:21:21.912Z,28.09
2022-09-19T09:26:29.035Z,28.05
2022-09-19T09:31:42.289Z,27.69
2022-09-19T09:37:07.724Z,27.87
2022-09-19T09:42:16.178Z,27.94
2022-09-19T09:47:45.458Z,28.22
2022-09-19T09:53:06.311Z,28.25
2022-09-19T09:58:22.381Z,27.98
2022-09-19T10:03:46.136Z,28.61
2022-09-19T10:09:22.945Z,28.41
2022-09-19T10:14:33.216Z,28.93
2022-09-19T10:19:58.149Z,28.95
2022-09-19T10:25:10.848Z,29.40
2022-09-19T10:30:21.014Z,29.35
2022-09-19T10:35:39.781Z,29.50
2022-09-19T10:41:01.553Z,29.88
2022-09-19T10:46:23.585Z,29.67
2022-09-19T10:51:48.677Z,28.81
2022-09-19T10:56:52.502Z,28.90
2022-09-19T11:02:20.879Z,30.18
2022-09-19T11:07:29.526Z,29.25
2022-09-19T11:12:33.872Z,29.76
2022-09-19T11:17:48.528Z,29.56
2022-09-19T11:23:20.315Z,30.90
2022-09-19T11:28:53.081Z,30.15
2022-09-19T11:40:03.507Z,30.45
2022-09-19T11:45:18.591Z,30.15
2022-09-19T11:50:38.446Z,29.97
2022-09-19T11:56:14.381Z,30.21
2022-09-19T12:01:33.011Z,30.37
2022-09-19T12:07:09.227Z,30.77
2022-09-19T12:12:18.308Z,30.40
2022-09-19T12:17:45.335Z,30.97
2022-09-19T12:23:32.764Z,30.41
2022-09-19T12:28:50.048Z,30.75
2022-09-19T12:34:12.598Z,30.15
2022-09-19T12:40:03.165Z,30.35
2022-09-19T12:45:18.347Z,30.19
2022-09-19T12:50:34.992Z,30.66
2022-09-19T12:56:00.849Z,30.70
2022-09-19T13:01:24.413Z,31.68
2022-09-19T13:06:33.903Z,31.51
2022-09-19T13:11:42.976Z,30.65
2022-09-19T13:17:05.240Z,30.18
2022-09-19T13:22:20.436Z,30.41
2022-09-19T13:27:25.802Z,29.02
2022-09-19T13:32:58.540Z,29.33
2022-09-19T13:38:23.923Z,27.74
2022-09-19T13:43:42.757Z,27.37
2022-09-19T13:49:00.258Z,26.84
2022-09-19T13:54:24.435Z,26.53
2022-09-19T13:59:31.285Z,26.23
2022-09-19T14:04:54.611Z,26.98
2022-09-19T14:10:11.833Z,27.78
2022-09-19T14:15:49.512Z,26.36
2022-09-19T14:21:01.023Z,25.76
2022-09-19T14:26:37.552Z,25.42
2022-09-19T14:31:50.288Z,26.32
2022-09-19T14:37:24.514Z,26.82
2022-09-19T14:42:39.904Z,26.59
2022-09-19T14:47:44.642Z,26.56
2022-09-19T14:53:01.663Z,25.75
2022-09-19T14:58:04.971Z,25.32
2022-09-19T15:03:13.179Z,24.91
2022-09-19T15:08:28.556Z,24.74
2022-09-19T15:13:34.660Z,24.92
2022-09-19T15:18:40.093Z,24.88
2022-09-19T15:23:46.619Z,25.18
2022-09-19T15:29:02.574Z,24.84
2022-09-19T15:34:14.662Z,24.95
2022-09-19T15:39:17.796Z,25.10
2022-09-19T15:44:31.320Z,25.23
2022-09-19T15:49:40.330Z,25.00
2022-09-19T15:54:50.344Z,24.75
2022-09-19T15:59:54.500Z,24.28
2022-09-19T16:05:25.911Z,23.99
2022-09-19T16:10:52.850Z,23.70
2022-09-19T16:15:57.955Z,23.41
2022-09-19T16:21:09.255Z,23.06
2022-09-19T16:26:17.658Z,22.66
2022-09-19T16:31:31.243Z,22.36
2022-09-19T16:36:44.108Z,22.02
2022-09-19T16:42:04.186Z,21.83
2022-09-19T16:47:18.540Z,21.54
2022-09-19T16:52:24.696Z,21.38
2022-09-19T16:57:29.135Z,21.26
2022-09-19T17:02:33.659Z,21.02
2022-09-19T17:07:37.574Z,20.75
2022-09-19T17:12:40.799Z,20.60
2022-09-19T17:17:48.340Z,20.42
2022-09-19T17:22:52.392Z,20.31
2022-09-19T17:27:55.726Z,20.17
2022-09-19T17:33:03.474Z,20.05
2022-09-19T17:38:07.889Z,19.90
2022-09-19T17:43:17.702Z,19.81
2022-09-19T17:48:20.898Z,19.64
2022-09-19T17:53:23.827Z,19.53
2022-09-19T17:58:26.686Z,19.42
2022-09-19T18:03:30.166Z,19.32
2022-09-19T18:08:34.186Z,19.12
2022-09-19T18:13:38.072Z,19.02
2022-09-19T18:18:47.870Z,18.94
2022-09-19T18:23:54.814Z,18.81
2022-09-19T18:29:03.334Z,18.83
2022-09-19T18:34:07.978Z,18.71
2022-09-19T18:39:12.781Z,18.62
2022-09-19T18:44:16.894Z,18.55
2022-09-19T18:49:21.443Z,18.42
2022-09-19T18:54:24.790Z,18.30
2022-09-19T18:59:28.853Z,18.25
2022-09-19T19:04:32.122Z,18.21
2022-09-19T19:09:36.874Z,18.04
2022-09-19T19:14:42.800Z,17.92
2022-09-19T19:19:46.650Z,17.85
2022-09-19T19:24:49.603Z,17.76
2022-09-19T19:29:52.499Z,17.70
2022-09-19T19:34:55.940Z,17.60
2022-09-19T19:39:59.108Z,17.47
2022-09-19T19:45:02.538Z,17.32
2022-09-19T19:50:06.563Z,17.16
2022-09-19T19:55:11.245Z,17.04
2022-09-19T20:00:14.708Z,16.90
2022-09-19T20:05:18.320Z,16.79
2022-09-19T20:10:23.296Z,16.69
2022-09-19T20:15:26.185Z,16.57
2022-09-19T20:20:29.518Z,16.53
2022-09-19T20:25:32.392Z,16.54
2022-09-19T20:30:37.551Z,16.58
2022-09-19T20:35:41.039Z,16.66
2022-09-19T20:40:43.964Z,16.89
2022-09-19T20:45:55.505Z,17.12
2022-09-19T20:51:00.956Z,17.35
2022-09-19T20:56:14.040Z,17.47
2022-09-19T21:01:17.194Z,17.50
2022-09-19T21:06:21.478Z,17.46
2022-09-19T21:11:26.853Z,17.40
2022-09-19T21:16:31.565Z,17.35
2022-09-19T21:21:35.446Z,17.39
2022-09-19T21:26:41.749Z,17.44
2022-09-19T21:31:46.734Z,17.40
2022-09-19T21:36:49.732Z,17.39
2022-09-19T21:41:53.034Z,17.35
2022-09-19T21:46:57.539Z,17.25
2022-09-19T21:52:01.015Z,17.37
2022-09-19T21:57:04.346Z,17.55
2022-09-19T22:02:07.677Z,17.49
2022-09-19T22:07:11.165Z,17.64
2022-09-19T22:12:14.459Z,17.72
2022-09-19T22:17:18.069Z,17.57
2022-09-19T22:22:21.199Z,17.22
2022-09-19T22:27:25.140Z,17.01
2022-09-19T22:32:28.213Z,16.92
2022-09-19T22:37:36.546Z,16.92
2022-09-19T22:42:39.687Z,16.89
2022-09-19T22:47:44.019Z,16.78
2022-09-19T22:52:47.278Z,16.87
2022-09-19T22:57:52.982Z,16.94
2022-09-19T23:02:56.420Z,16.97
2022-09-19T23:07:59.480Z,16.79
2022-09-19T23:13:41.291Z,16.79
2022-09-19T23:18:45.117Z,16.77
2022-09-19T23:23:49.928Z,16.71
2022-09-19T23:28:53.639Z,16.70
2022-09-19T23:33:58.596Z,16.58
2022-09-19T23:39:03.713Z,16.46
2022-09-19T23:44:07.471Z,16.26
2022-09-19T23:49:10.916Z,16.11
2022-09-19T23:54:14.043Z,15.98
2022-09-19T23:59:16.986Z,15.87
